AirNav   MODERNIZE NOT PRIVATIZE ATC
 
 994 users online  

50CO Castle Rock Adventist Health Campus Heliport
Castle Rock, Colorado, USA


FAA INFORMATION EFFECTIVE 20 JULY 2017

Location

FAA Identifier: 50CO
Lat/Long: 39-24-22.0000N / 104-53-03.0000W
39-24.366667N / 104-53.050000W
39.4061111 / -104.8841667
(estimated)
Elevation: 6134 ft. / 1870 m (estimated)
From city: 2 miles SE of CASTLE ROCK, CO
Time zone: UTC -6 (UTC -7 during Standard Time)
Zip code: 80108

Heliport Operations

Heliport use: Private use. Permission required prior to landing
Activation date: 02/2012
Control tower: no
ARTCC: DENVER CENTER
FSS: DENVER FLIGHT SERVICE STATION
Attendance: CONTINUOUS
Wind indicator: lighted
Segmented circle: no

Heliport Communications

WX ASOS at APA (10 nm N): PHONE 303-706-9098

Nearby radio navigation aids

VOR radial/distance  VOR name  Freq  Var
FQFr205/20.9FALCON VORTAC116.3011E
DENr195/26.5DENVER VOR/DME117.9008E
BRKr329/30.1BLACK FOREST VOR/DME112.5008E
DVVr194/31.7MILE HIGH VORTAC114.7008E
BJCr148/32.6JEFFCO VOR/DME115.4011E

 
NDB name  Hdg/Dist  Freq  Var  ID
CASSE205/3.326008EAP .- .--.

Heliport Services

Runway Information

Helipad H1

Dimensions: 40 x 40 ft. / 12 x 12 m
Surface: concrete, in good condition
Latitude: 39-24.366667N
Longitude: 104-53.050000W
Elevation: 6134.0 ft.
Traffic pattern: leftleft

Heliport Ownership and Management from official FAA records

Ownership: Privately-owned
Owner: PORTERCARE ADVENTIST HEALTH SYSTEM
2350 MEADOWS BLVD
CASTLE ROCK, CO 80109
Phone 720-455-2500
Manager: BRIAN MOORE
2350 MEADOWS BLVD
CASTLE ROCK, CO 80109
Phone 720-455-2500

Instrument Procedures

There are no published instrument procedures at 50CO.

Some nearby airports with instrument procedures:

KAPA - Centennial Airport (10 nm N)
KBKF - Buckley Air Force Base (19 nm N)
KFTG - Front Range Airport (28 nm NE)
KDEN - Denver International Airport (29 nm N)
KBJC - Rocky Mountain Metropolitan Airport (32 nm N)
 
Loc | Ops | Rwys | IFR | FBO | Links
Com | Nav | Svcs | Stats | Notes


 
Aerial photo
No photo
 
Airport distance calculator
Flying to Castle Rock Adventist Health Campus Heliport? Find the distance to fly.

From to 50CO

Sunrise and sunset
Times for 23-Jul-2017
 Local
(UTC-6)
 Zulu
(UTC)
Morning civil twilight05:2211:22
Sunrise05:5211:52
Sunset20:2002:20
Evening civil twilight20:5002:50

Current date and time
Zulu (UTC)  24-Jul-2017 01:34:16
Local (UTC-6)  23-Jul-2017 19:34:16
 
METAR
KAPA 
10nm N 
240112Z 24009KT 10SM FEW100 SCT150 SCT220 27/09 A3015 RMK AO2 WSHFT 0052 VIRGA SW T02720094
KMNH 
16nm SE 
240110Z AUTO 17007KT 10SM CLR 23/09 A3029 RMK AO2
KBKF 
20nm N 
240058Z 18009KT 10SM FEW090 FEW200 29/09 A3014 RMK AO2A SLP127 T02850094
TAF
KAPA 
10nm N 
232228Z 2322/2418 13008KT P6SM VCTS SCT070CB BKN150 TEMPO 2322/2324 VRB15G25KT FM240100 19010KT P6SM FEW070 SCT150 FM240500 19007KT P6SM FEW150 SCT220 FM241600 VRB05KT P6SM FEW080 SCT220
KBKF 
20nm N 
232303Z 2323/2423 VRB06KT 9999 FEW080 SCT150 QNH3011INS TEMPO 2323/2402 VRB15G25KT 9000 -TSRA SCT090CB BKN150 BECMG 2401/2402 19009KT 9999 FEW120 SCT200 QNH3012INS TX29/2323Z TN17/2412Z
NOTAMs
Click for the latest NOTAMs
NOTAMs are issued by the DoD/FAA and will open in a separate window not controlled by AirNav.

 

 
 

Would you like to see your business listed on this page?

 If your business provides an interesting product or service to pilots, flight crews, aircraft, or users of the Castle Rock Adventist Health Campus Heliport, you should consider listing it here.  To start the listing process, click on the button below
 
Add a business
 

Other Pages about Castle Rock Adventist Health Campus Heliport

Update a link
 
Copyright © AirNav, LLC. All rights reserved. Privacy Policy  Contact